Time;durP1;ratioP1;P1;durP2;ratioP2;P2;SDS_P1;SDS_P2;PMS_P1;PMS_P2;Temp;Humidity;BMP_temperature;BMP_pressure;BME280_temperature;BME280_humidity;BME280_pressure;Samples;Min_cycle;Max_cycle;Signal;HPM_P1;HPM_P2
2021/05/23 00:02:06;;;;;;;6.15;1.65;;;13.00;84.80;;;;;;5084305;28;20505;-72
2021/05/23 00:04:33;;;;;;;6.85;2.42;;;12.90;85.30;;;;;;5079922;28;20128;-72
2021/05/23 00:07:00;;;;;;;6.82;1.48;;;13.00;85.60;;;;;;5084818;28;20101;-73
2021/05/23 00:09:28;;;;;;;6.55;2.78;;;13.00;85.60;;;;;;5081351;28;20418;-72
2021/05/23 00:11:55;;;;;;;2.50;1.05;;;12.90;85.60;;;;;;5083771;28;20102;-71
2021/05/23 00:14:22;;;;;;;5.35;1.92;;;12.90;84.90;;;;;;5077366;28;20499;-72
2021/05/23 00:16:50;;;;;;;5.40;1.48;;;12.80;85.70;;;;;;5067511;28;20552;-73
2021/05/23 00:19:17;;;;;;;3.67;1.35;;;13.00;85.90;;;;;;5063690;28;20102;-73
2021/05/23 00:21:44;;;;;;;5.68;1.67;;;13.20;85.10;;;;;;5084083;28;20130;-73
2021/05/23 00:24:11;;;;;;;3.75;0.90;;;13.40;84.70;;;;;;5083121;28;20056;-73
2021/05/23 00:26:38;;;;;;;4.30;1.15;;;13.30;84.30;;;;;;5081318;28;20369;-72
2021/05/23 00:29:06;;;;;;;4.53;1.45;;;13.10;84.60;;;;;;5079450;28;20492;-73
2021/05/23 00:31:34;;;;;;;2.85;0.90;;;13.20;85.30;;;;;;5085445;28;20463;-72
2021/05/23 00:34:01;;;;;;;4.72;2.00;;;13.20;84.80;;;;;;5080754;28;20060;-73
2021/05/23 00:36:28;;;;;;;3.42;0.90;;;13.30;84.40;;;;;;5085899;28;20043;-72
2021/05/23 00:38:55;;;;;;;3.17;1.35;;;13.30;84.00;;;;;;5085133;28;20097;-72
2021/05/23 00:41:22;;;;;;;5.00;1.60;;;13.10;83.90;;;;;;5076439;28;20044;-72
2021/05/23 00:43:49;;;;;;;5.35;1.58;;;13.10;84.50;;;;;;5081695;28;20150;-74
2021/05/23 00:46:16;;;;;;;4.00;1.10;;;12.90;83.80;;;;;;5078679;28;20048;-72
2021/05/23 00:48:43;;;;;;;4.93;1.48;;;12.90;84.60;;;;;;5073253;28;20131;-75
2021/05/23 00:51:10;;;;;;;3.78;1.25;;;12.90;85.50;;;;;;5080326;28;20109;-71
2021/05/23 00:53:36;;;;;;;3.00;1.30;;;12.90;84.50;;;;;;5079947;28;20058;-72
2021/05/23 00:56:04;;;;;;;1.38;0.88;;;12.90;84.10;;;;;;5076457;28;20075;-71
2021/05/23 00:58:30;;;;;;;2.75;0.75;;;12.90;83.10;;;;;;5079909;28;20095;-71
2021/05/23 01:00:57;;;;;;;2.67;1.10;;;12.90;82.20;;;;;;5081296;28;20459;-72
2021/05/23 01:03:27;;;;;;;4.03;1.10;;;12.90;82.20;;;;;;5078754;28;20049;-72
2021/05/23 01:05:55;;;;;;;5.53;1.10;;;12.90;81.20;;;;;;5076876;28;20063;-72
2021/05/23 01:08:22;;;;;;;3.45;1.50;;;12.90;80.80;;;;;;5079858;28;20131;-72
2021/05/23 01:11:00;;;;;;;3.88;1.30;;;12.80;80.60;;;;;;5077348;28;20080;-71
2021/05/23 01:13:37;;;;;;;4.30;2.08;;;12.80;80.20;;;;;;5075919;28;20101;-72
2021/05/23 01:16:21;;;;;;;7.57;3.30;;;12.80;79.70;;;;;;5093684;28;20072;-72
2021/05/23 01:18:47;;;;;;;7.90;2.97;;;12.80;79.30;;;;;;5077634;28;20064;-71
2021/05/23 01:21:18;;;;;;;5.88;2.30;;;12.80;79.50;;;;;;5078693;27;20072;-72
2021/05/23 01:23:54;;;;;;;6.97;1.95;;;12.80;79.60;;;;;;5078540;28;20105;-71
2021/05/23 01:26:25;;;;;;;4.53;2.28;;;12.80;79.40;;;;;;5076641;28;20722;-72
2021/05/23 01:28:59;;;;;;;4.72;2.33;;;12.80;79.80;;;;;;5076738;28;20075;-72
2021/05/23 01:31:29;;;;;;;4.50;1.48;;;12.70;79.20;;;;;;5080838;28;20133;-72
2021/05/23 01:33:57;;;;;;;5.72;2.45;;;12.70;79.20;;;;;;5082381;28;20070;-72
2021/05/23 01:36:28;;;;;;;3.70;1.55;;;12.70;79.70;;;;;;5087342;28;20048;-72
2021/05/23 01:38:56;;;;;;;5.28;2.17;;;12.60;80.30;;;;;;5082639;28;20075;-72
2021/05/23 01:41:23;;;;;;;5.82;1.77;;;12.60;80.30;;;;;;5074959;28;20487;-72
2021/05/23 01:43:50;;;;;;;4.68;1.63;;;12.60;80.10;;;;;;5081104;28;20076;-71
2021/05/23 01:46:17;;;;;;;4.15;1.45;;;12.50;80.20;;;;;;5083136;28;20064;-72
2021/05/23 01:48:45;;;;;;;5.05;1.35;;;12.50;80.50;;;;;;5074496;28;20127;-71
2021/05/23 01:51:11;;;;;;;3.28;1.67;;;12.50;80.90;;;;;;5084534;28;20059;-72
2021/05/23 01:53:40;;;;;;;4.63;1.65;;;12.50;80.50;;;;;;5087832;28;20086;-72
2021/05/23 01:56:11;;;;;;;3.67;1.85;;;12.50;80.80;;;;;;5081427;28;20049;-73
2021/05/23 01:58:38;;;;;;;2.95;1.38;;;12.50;80.90;;;;;;5086334;28;20080;-72
2021/05/23 02:01:05;;;;;;;4.53;1.73;;;12.50;81.30;;;;;;5075715;28;20045;-72
2021/05/23 02:03:33;;;;;;;3.25;1.60;;;12.50;81.40;;;;;;5080178;28;20429;-72
2021/05/23 02:06:03;;;;;;;2.95;1.30;;;12.40;81.00;;;;;;5085167;28;20059;-73
2021/05/23 02:08:32;;;;;;;3.30;0.90;;;12.40;81.10;;;;;;5088316;28;20441;-74
2021/05/23 02:11:07;;;;;;;3.75;1.20;;;12.40;81.70;;;;;;5085712;28;20052;-73
2021/05/23 02:13:36;;;;;;;4.50;1.35;;;12.30;81.50;;;;;;5083060;28;20044;-72
2021/05/23 02:16:04;;;;;;;2.92;1.35;;;12.30;81.60;;;;;;5088265;28;20052;-72
2021/05/23 02:18:35;;;;;;;2.67;1.20;;;12.30;82.00;;;;;;5080801;28;20087;-72
2021/05/23 02:21:04;;;;;;;3.47;1.00;;;12.30;82.10;;;;;;5080089;28;20072;-72
2021/05/23 02:23:31;;;;;;;4.13;0.98;;;12.30;81.80;;;;;;5088930;28;20053;-72
2021/05/23 02:25:58;;;;;;;2.72;1.55;;;12.30;81.90;;;;;;5082373;28;20471;-72
2021/05/23 02:28:25;;;;;;;3.45;0.93;;;12.30;81.30;;;;;;5081581;28;20475;-72
2021/05/23 02:30:56;;;;;;;3.15;0.95;;;12.20;81.10;;;;;;5087203;28;20036;-72
2021/05/23 02:33:25;;;;;;;1.20;0.70;;;12.30;81.90;;;;;;5079073;28;20487;-72
2021/05/23 02:35:54;;;;;;;2.30;1.20;;;12.20;81.00;;;;;;5088073;28;20071;-72
2021/05/23 02:38:21;;;;;;;1.42;0.80;;;12.20;81.40;;;;;;5082042;28;20061;-73
2021/05/23 02:40:49;;;;;;;3.08;1.00;;;12.20;81.30;;;;;;5083774;28;20036;-72
2021/05/23 02:43:18;;;;;;;3.00;1.13;;;12.20;81.10;;;;;;5086027;28;20102;-72
2021/05/23 02:45:45;;;;;;;1.77;0.90;;;12.20;81.20;;;;;;5085422;28;20497;-72
2021/05/23 02:48:13;;;;;;;2.85;1.00;;;12.20;81.60;;;;;;5086182;28;20056;-72
2021/05/23 02:50:46;;;;;;;0.93;0.60;;;12.20;81.00;;;;;;5077129;28;20479;-72
2021/05/23 02:53:14;;;;;;;2.25;0.80;;;12.20;80.90;;;;;;5087413;28;20071;-72
2021/05/23 02:55:43;;;;;;;2.97;1.15;;;12.20;81.20;;;;;;5072752;28;20055;-72
2021/05/23 02:58:12;;;;;;;1.85;1.00;;;12.10;80.60;;;;;;5085052;28;20119;-72
2021/05/23 03:00:40;;;;;;;2.97;1.00;;;12.00;81.10;;;;;;5079945;28;20695;-72
2021/05/23 03:03:08;;;;;;;1.15;0.65;;;12.10;81.40;;;;;;5074227;28;20052;-73
2021/05/23 03:05:36;;;;;;;2.03;0.90;;;12.00;81.30;;;;;;5084678;28;20043;-72
2021/05/23 03:08:04;;;;;;;3.35;0.90;;;12.00;81.10;;;;;;5083155;28;20043;-72
2021/05/23 03:10:36;;;;;;;2.97;0.80;;;12.00;81.30;;;;;;5075454;28;20087;-67
2021/05/23 03:13:05;;;;;;;6.85;0.93;;;12.10;81.70;;;;;;5085131;28;20506;-67
2021/05/23 03:15:32;;;;;;;2.38;0.60;;;12.00;81.20;;;;;;5085334;28;20127;-67
2021/05/23 03:18:01;;;;;;;2.13;0.68;;;12.00;81.00;;;;;;5090299;28;20060;-68
2021/05/23 03:20:29;;;;;;;0.93;0.70;;;12.00;81.20;;;;;;5084744;28;20197;-67
2021/05/23 03:22:57;;;;;;;2.65;0.75;;;12.00;81.00;;;;;;5077201;28;20131;-67
2021/05/23 03:25:26;;;;;;;4.05;0.80;;;11.90;81.10;;;;;;5084076;28;20477;-68
2021/05/23 03:27:53;;;;;;;3.17;0.70;;;12.00;81.20;;;;;;5078764;28;20083;-68
2021/05/23 03:30:32;;;;;;;1.98;0.77;;;12.00;81.20;;;;;;5073603;28;20044;-67
2021/05/23 03:32:59;;;;;;;1.90;0.80;;;12.00;80.80;;;;;;5080693;28;20154;-67
2021/05/23 03:35:26;;;;;;;2.28;0.65;;;12.00;80.90;;;;;;5083768;28;20067;-67
2021/05/23 03:37:53;;;;;;;0.98;0.60;;;12.00;80.80;;;;;;5079850;28;20048;-67
2021/05/23 03:40:20;;;;;;;0.73;0.57;;;11.90;80.90;;;;;;5080230;28;20041;-67
2021/05/23 03:42:49;;;;;;;0.55;0.43;;;11.90;80.80;;;;;;5078316;28;20479;-68
2021/05/23 03:45:20;;;;;;;1.92;0.70;;;11.90;81.00;;;;;;5082109;28;20477;-68
2021/05/23 03:47:48;;;;;;;1.08;0.60;;;12.00;81.20;;;;;;5082511;28;20079;-67
2021/05/23 03:50:20;;;;;;;1.85;1.27;;;11.90;80.80;;;;;;5075258;28;20098;-68
2021/05/23 03:52:48;;;;;;;1.55;0.55;;;12.00;80.90;;;;;;5088161;28;20162;-67
2021/05/23 03:55:15;;;;;;;1.95;0.60;;;11.90;81.20;;;;;;5081115;28;20049;-67
2021/05/23 03:57:42;;;;;;;2.42;0.80;;;11.80;81.50;;;;;;5077838;28;20044;-68
2021/05/23 04:00:11;;;;;;;1.95;0.85;;;11.90;81.70;;;;;;5082409;28;20050;-67
2021/05/23 04:02:38;;;;;;;1.70;0.82;;;11.90;82.20;;;;;;5076636;28;20079;-67
2021/05/23 04:05:06;;;;;;;1.73;0.60;;;11.80;81.90;;;;;;5083213;28;20084;-67
2021/05/23 04:07:33;;;;;;;1.05;0.55;;;11.80;81.90;;;;;;5084277;28;20044;-67
2021/05/23 04:10:02;;;;;;;1.48;0.70;;;11.80;82.40;;;;;;5085909;28;20056;-67
2021/05/23 04:12:33;;;;;;;2.42;0.60;;;11.80;82.40;;;;;;5086380;28;20055;-67
2021/05/23 04:15:00;;;;;;;3.28;0.80;;;11.80;83.00;;;;;;5081127;28;20112;-67
2021/05/23 04:17:28;;;;;;;1.25;0.80;;;11.80;83.60;;;;;;5074874;28;20048;-67
2021/05/23 04:19:56;;;;;;;1.73;0.80;;;11.80;83.50;;;;;;5078915;28;20045;-67
2021/05/23 04:22:23;;;;;;;1.35;0.60;;;11.80;83.60;;;;;;5083240;28;20468;-67
2021/05/23 04:24:50;;;;;;;1.73;0.70;;;11.80;83.90;;;;;;5082582;28;20079;-68
2021/05/23 04:27:17;;;;;;;1.98;0.85;;;11.70;84.10;;;;;;5076328;28;20040;-68
2021/05/23 04:29:43;;;;;;;3.65;0.80;;;11.80;84.40;;;;;;5077034;28;20414;-68
2021/05/23 04:32:10;;;;;;;1.60;0.60;;;11.70;84.10;;;;;;5073011;28;20530;-68
2021/05/23 04:34:37;;;;;;;2.80;1.02;;;11.70;84.10;;;;;;5083055;28;20075;-68
2021/05/23 04:37:05;;;;;;;3.67;1.02;;;11.80;84.50;;;;;;5092370;28;20102;-68
2021/05/23 04:39:33;;;;;;;2.25;0.70;;;11.70;84.40;;;;;;5079223;28;20118;-68
2021/05/23 04:42:00;;;;;;;2.83;0.60;;;11.80;83.70;;;;;;5081877;28;20048;-68
2021/05/23 04:44:46;;;;;;;2.63;0.82;;;11.90;84.20;;;;;;5079456;28;20051;-68
2021/05/23 04:47:13;;;;;;;3.33;0.98;;;11.90;84.10;;;;;;5086179;28;20082;-67
2021/05/23 04:49:40;;;;;;;1.20;0.80;;;11.90;84.10;;;;;;5080034;28;20387;-67
2021/05/23 04:52:08;;;;;;;4.22;0.95;;;11.90;84.40;;;;;;5074713;28;20463;-67
2021/05/23 04:54:37;;;;;;;1.92;0.90;;;11.80;84.30;;;;;;5079650;28;20467;-67
2021/05/23 04:57:04;;;;;;;1.98;0.80;;;11.90;84.80;;;;;;5080226;28;20036;-66
2021/05/23 04:59:32;;;;;;;2.28;0.70;;;11.90;84.60;;;;;;5085947;28;20040;-67
2021/05/23 05:01:59;;;;;;;2.50;0.73;;;12.00;84.60;;;;;;5081843;28;20044;-67
2021/05/23 05:04:26;;;;;;;1.88;0.80;;;11.80;84.90;;;;;;5078155;28;20043;-67
2021/05/23 05:06:53;;;;;;;0.90;0.60;;;11.80;85.60;;;;;;5081755;28;20048;-68
2021/05/23 05:09:20;;;;;;;1.48;1.08;;;11.80;85.50;;;;;;5078761;28;20040;-68
2021/05/23 05:11:46;;;;;;;4.38;0.88;;;11.80;84.90;;;;;;5079755;28;20056;-68
2021/05/23 05:14:13;;;;;;;0.95;0.80;;;11.90;85.00;;;;;;5086913;28;20468;-68
2021/05/23 05:16:41;;;;;;;2.05;1.00;;;12.00;84.60;;;;;;5086927;28;20093;-67
2021/05/23 05:19:09;;;;;;;3.35;1.23;;;12.60;82.90;;;;;;5079393;28;20053;-68
2021/05/23 05:21:36;;;;;;;3.38;1.05;;;12.70;80.30;;;;;;5090580;28;20095;-68
2021/05/23 05:24:04;;;;;;;5.13;1.00;;;12.30;82.10;;;;;;5081733;28;20044;-67
2021/05/23 05:26:31;;;;;;;2.17;0.82;;;11.90;83.10;;;;;;5091310;28;20479;-67
2021/05/23 05:28:58;;;;;;;5.57;1.10;;;11.80;84.50;;;;;;5086655;28;20115;-67
2021/05/23 05:31:25;;;;;;;1.63;0.80;;;11.80;84.30;;;;;;5088739;28;20494;-67
2021/05/23 05:33:52;;;;;;;2.90;0.93;;;11.80;84.30;;;;;;5082727;28;20089;-68
2021/05/23 05:36:20;;;;;;;2.95;0.90;;;11.70;83.60;;;;;;5092106;28;20040;-67
2021/05/23 05:38:49;;;;;;;1.63;0.88;;;11.70;84.00;;;;;;5086107;28;20075;-67
2021/05/23 05:41:17;;;;;;;1.65;0.77;;;11.90;83.40;;;;;;5083179;28;20049;-68
2021/05/23 05:43:44;;;;;;;1.00;0.70;;;11.90;82.80;;;;;;5085697;28;20544;-67
2021/05/23 05:46:11;;;;;;;2.25;0.80;;;11.90;82.60;;;;;;5090575;28;20101;-67
2021/05/23 05:48:39;;;;;;;4.13;0.77;;;12.10;82.50;;;;;;5082895;28;20128;-68
2021/05/23 05:51:06;;;;;;;4.10;1.30;;;12.40;82.20;;;;;;5081098;28;20130;-68
2021/05/23 05:53:33;;;;;;;1.98;0.80;;;12.50;81.40;;;;;;5086100;28;20068;-68
2021/05/23 05:56:01;;;;;;;3.15;0.80;;;12.40;80.80;;;;;;5085826;28;20154;-67
2021/05/23 05:58:28;;;;;;;2.42;0.57;;;12.10;81.90;;;;;;5079094;28;20135;-67
2021/05/23 06:00:54;;;;;;;1.52;0.70;;;12.10;82.20;;;;;;5091449;28;20633;-67
2021/05/23 06:03:21;;;;;;;5.95;1.08;;;12.20;81.30;;;;;;5085982;28;20056;-68
2021/05/23 06:05:48;;;;;;;3.30;1.00;;;12.70;80.80;;;;;;5086045;28;20519;-68
2021/05/23 06:08:15;;;;;;;2.42;0.98;;;12.40;80.50;;;;;;5085178;28;20531;-69
2021/05/23 06:10:42;;;;;;;2.40;0.95;;;12.20;82.00;;;;;;5079087;28;20044;-68
2021/05/23 06:13:08;;;;;;;1.67;0.95;;;12.30;81.60;;;;;;5077472;28;20049;-68
2021/05/23 06:15:35;;;;;;;1.42;0.70;;;12.40;81.60;;;;;;5083710;28;20075;-68
2021/05/23 06:18:02;;;;;;;4.28;1.42;;;12.30;82.60;;;;;;5080797;28;20119;-68
2021/05/23 06:20:29;;;;;;;4.68;1.08;;;12.40;82.80;;;;;;5088955;28;20131;-68
2021/05/23 06:22:56;;;;;;;2.78;0.93;;;12.50;82.10;;;;;;5081545;28;20044;-68
2021/05/23 06:25:23;;;;;;;3.05;0.90;;;12.50;82.20;;;;;;5076341;28;20107;-68
2021/05/23 06:27:50;;;;;;;7.97;1.02;;;12.30;82.80;;;;;;5083600;28;20036;-67
2021/05/23 06:30:17;;;;;;;4.43;1.20;;;12.30;82.40;;;;;;5076520;28;20048;-68
2021/05/23 06:32:44;;;;;;;2.03;1.20;;;12.50;82.40;;;;;;5081989;28;20072;-68
2021/05/23 06:35:13;;;;;;;3.75;1.30;;;12.30;81.90;;;;;;5083967;28;20059;-69
2021/05/23 06:37:41;;;;;;;2.63;1.13;;;12.50;82.10;;;;;;5082402;28;20076;-69
2021/05/23 06:40:08;;;;;;;4.70;1.17;;;12.70;80.90;;;;;;5100653;28;20053;-68
2021/05/23 06:42:35;;;;;;;4.38;1.20;;;12.40;80.90;;;;;;5080252;28;20076;-69
2021/05/23 06:45:03;;;;;;;2.22;0.75;;;12.70;80.30;;;;;;5080987;28;20044;-68
2021/05/23 06:47:30;;;;;;;1.75;1.13;;;13.10;79.90;;;;;;5079182;28;20052;-68
2021/05/23 06:49:58;;;;;;;2.10;1.20;;;12.80;78.80;;;;;;5081610;28;20052;-68
2021/05/23 06:52:26;;;;;;;4.65;1.15;;;12.70;79.50;;;;;;5087822;28;20079;-69
2021/05/23 06:54:53;;;;;;;4.40;1.60;;;12.50;80.30;;;;;;5082173;28;20429;-67
2021/05/23 06:57:20;;;;;;;5.45;1.00;;;12.40;80.80;;;;;;5089248;28;20045;-68
2021/05/23 06:59:47;;;;;;;2.47;1.13;;;12.40;81.10;;;;;;5082822;28;20111;-69
2021/05/23 07:02:14;;;;;;;2.30;0.90;;;12.60;80.50;;;;;;5080951;28;20093;-68
2021/05/23 07:04:41;;;;;;;1.63;1.10;;;12.40;80.20;;;;;;5086477;28;20083;-69
2021/05/23 07:07:07;;;;;;;2.30;1.00;;;12.60;80.60;;;;;;5082711;28;20079;-68
2021/05/23 07:09:34;;;;;;;3.10;1.10;;;12.50;80.20;;;;;;5079130;28;20083;-68
2021/05/23 07:12:02;;;;;;;2.22;1.20;;;12.50;80.10;;;;;;5067383;28;624191;-70
2021/05/23 07:14:30;;;;;;;3.22;1.27;;;12.90;79.10;;;;;;5086411;28;20074;-68
2021/05/23 07:16:56;;;;;;;3.72;1.20;;;12.70;79.90;;;;;;5088436;28;20044;-67
2021/05/23 07:19:23;;;;;;;3.70;1.05;;;13.00;79.50;;;;;;5083077;28;20124;-68
2021/05/23 07:21:50;;;;;;;2.65;1.10;;;13.30;78.00;;;;;;5086017;28;20422;-68
2021/05/23 07:24:17;;;;;;;3.75;1.23;;;13.00;76.50;;;;;;5083633;28;20083;-67
2021/05/23 07:26:44;;;;;;;4.95;1.27;;;13.00;77.60;;;;;;5090514;28;20068;-69
2021/05/23 07:29:11;;;;;;;3.55;1.27;;;13.20;77.30;;;;;;5069842;28;20050;-68
2021/05/23 07:31:37;;;;;;;5.90;1.00;;;13.70;75.50;;;;;;5089129;28;20075;-68
2021/05/23 07:34:04;;;;;;;4.53;1.33;;;13.60;75.00;;;;;;5080054;28;20072;-68
2021/05/23 07:36:31;;;;;;;2.70;1.10;;;13.70;75.10;;;;;;5081139;28;20078;-74
2021/05/23 07:38:58;;;;;;;6.00;2.58;;;13.50;74.20;;;;;;5077438;28;20082;-71
2021/05/23 07:41:25;;;;;;;4.85;1.33;;;13.40;74.20;;;;;;5085414;28;20067;-73
2021/05/23 07:43:52;;;;;;;3.42;1.20;;;13.20;73.30;;;;;;5081824;28;20049;-72
2021/05/23 07:46:19;;;;;;;3.05;1.20;;;13.60;73.60;;;;;;5089100;28;20055;-72
2021/05/23 07:48:46;;;;;;;2.90;1.10;;;13.80;72.70;;;;;;5084224;28;20128;-72
2021/05/23 07:51:13;;;;;;;3.83;1.15;;;13.70;73.00;;;;;;5088262;28;20052;-72
2021/05/23 07:53:40;;;;;;;1.63;0.90;;;13.80;72.70;;;;;;5082031;28;20134;-71
2021/05/23 07:56:07;;;;;;;2.38;0.70;;;13.80;72.10;;;;;;5080681;28;20044;-72
2021/05/23 07:58:34;;;;;;;1.63;1.00;;;13.80;71.90;;;;;;5088319;28;20052;-72
2021/05/23 08:01:01;;;;;;;3.08;1.15;;;13.50;72.20;;;;;;5083062;28;20063;-72
2021/05/23 08:03:28;;;;;;;3.35;1.33;;;13.70;71.50;;;;;;5078666;28;20048;-71
2021/05/23 08:05:55;;;;;;;3.70;0.88;;;13.70;71.70;;;;;;5087369;28;20044;-72
2021/05/23 08:08:22;;;;;;;4.13;0.93;;;13.60;71.40;;;;;;5089270;28;20105;-72
2021/05/23 08:10:49;;;;;;;2.17;1.00;;;13.70;72.90;;;;;;5077650;28;20702;-72
2021/05/23 08:13:16;;;;;;;0.82;0.63;;;13.70;72.20;;;;;;5083257;28;20540;-73
2021/05/23 08:15:44;;;;;;;1.52;0.85;;;13.60;70.70;;;;;;5082880;28;20127;-72
2021/05/23 08:18:15;;;;;;;3.65;1.08;;;13.60;71.30;;;;;;5082014;28;20051;-72
2021/05/23 08:20:47;;;;;;;2.40;1.05;;;13.60;72.20;;;;;;5082677;28;20399;-72
2021/05/23 08:23:14;;;;;;;1.42;0.90;;;13.60;71.70;;;;;;5077155;28;20039;-72
2021/05/23 08:25:41;;;;;;;1.75;0.75;;;13.60;71.10;;;;;;5074488;28;20079;-72
2021/05/23 08:28:07;;;;;;;2.72;0.90;;;13.70;70.10;;;;;;5086119;28;20060;-72
2021/05/23 08:30:34;;;;;;;4.93;1.10;;;13.80;70.40;;;;;;5084060;28;20080;-72
2021/05/23 08:33:01;;;;;;;4.90;1.00;;;13.80;70.30;;;;;;5082081;28;20058;-72
2021/05/23 08:35:28;;;;;;;0.80;0.70;;;13.80;69.40;;;;;;5083566;28;20044;-72
2021/05/23 08:37:55;;;;;;;2.45;0.85;;;13.70;69.20;;;;;;5074215;28;20066;-72
2021/05/23 08:40:22;;;;;;;6.30;1.58;;;13.80;69.90;;;;;;5079164;28;20045;-72
2021/05/23 08:42:49;;;;;;;3.40;1.08;;;14.00;70.20;;;;;;5080556;28;20411;-71
2021/05/23 08:45:16;;;;;;;6.03;1.10;;;14.10;69.90;;;;;;5088797;28;20075;-72
2021/05/23 08:47:45;;;;;;;2.50;1.00;;;14.10;68.30;;;;;;5077187;28;20491;-72
2021/05/23 08:50:20;;;;;;;2.88;1.02;;;14.50;68.20;;;;;;5078262;28;20400;-72
2021/05/23 08:52:56;;;;;;;2.47;1.00;;;14.60;67.70;;;;;;5086745;28;20064;-72
2021/05/23 08:55:24;;;;;;;1.38;0.90;;;14.50;73.70;;;;;;5078002;28;20040;-72
2021/05/23 08:57:52;;;;;;;5.55;1.48;;;14.20;72.10;;;;;;5075931;28;20105;-72
2021/05/23 09:00:20;;;;;;;2.60;1.00;;;14.20;71.50;;;;;;5081802;28;20109;-71
2021/05/23 09:02:56;;;;;;;2.00;0.90;;;14.40;71.90;;;;;;5079478;28;20479;-71
2021/05/23 09:05:35;;;;;;;2.65;1.00;;;14.30;69.20;;;;;;5076499;28;20076;-71
2021/05/23 09:08:08;;;;;;;2.85;0.77;;;14.50;70.00;;;;;;5080968;28;20439;-71
2021/05/23 09:10:37;;;;;;;4.30;0.90;;;14.70;69.20;;;;;;5079116;28;20143;-71
2021/05/23 09:13:04;;;;;;;2.53;0.98;;;14.40;68.70;;;;;;5079016;28;20040;-72
2021/05/23 09:15:31;;;;;;;2.15;0.70;;;14.60;69.70;;;;;;5072816;28;20811;-73
2021/05/23 09:18:12;;;;;;;1.55;0.93;;;14.40;67.70;;;;;;5081296;28;20526;-72
2021/05/23 09:20:40;;;;;;;1.58;0.77;;;14.50;68.50;;;;;;5073774;28;20546;-71
2021/05/23 09:23:19;;;;;;;2.85;0.95;;;14.30;66.60;;;;;;5082198;28;20135;-72
2021/05/23 09:25:46;;;;;;;4.70;0.80;;;14.50;67.70;;;;;;5081907;28;20396;-71
2021/05/23 09:28:14;;;;;;;3.75;0.80;;;14.70;67.10;;;;;;5080805;28;20474;-72
2021/05/23 09:30:44;;;;;;;2.38;0.88;;;15.00;67.80;;;;;;5076891;28;20106;-72
2021/05/23 09:33:18;;;;;;;;;;;14.80;65.70;;;;;;5084027;28;20079;-74
2021/05/23 09:35:45;;;;;;;3.25;1.08;;;14.80;64.40;;;;;;5072112;28;19951;-73
2021/05/23 09:38:15;;;;;;;2.10;0.70;;;14.90;64.70;;;;;;5086346;28;20371;-73
2021/05/23 09:40:44;;;;;;;4.68;1.20;;;14.80;64.60;;;;;;5080302;28;20103;-73
2021/05/23 09:43:20;;;;;;;4.13;1.90;;;14.90;64.70;;;;;;5077036;28;20066;-73
2021/05/23 09:45:53;;;;;;;4.05;0.85;;;15.10;65.00;;;;;;5078710;28;20048;-72
2021/05/23 09:48:26;;;;;;;1.05;0.70;;;15.10;63.80;;;;;;5081749;28;20056;-72
2021/05/23 09:50:55;;;;;;;2.70;1.00;;;15.20;62.40;;;;;;5069155;28;20590;-72
2021/05/23 09:53:31;;;;;;;2.92;0.90;;;15.40;62.30;;;;;;5083313;28;20048;-73
2021/05/23 09:56:07;;;;;;;3.30;0.73;;;15.40;60.90;;;;;;5086625;28;20400;-73
2021/05/23 09:58:39;;;;;;;1.85;0.80;;;15.70;60.50;;;;;;5086390;28;20057;-72
2021/05/23 10:01:08;;;;;;;2.72;1.00;;;15.80;59.90;;;;;;5087008;28;20087;-73
2021/05/23 10:03:38;;;;;;;2.13;0.77;;;15.40;59.50;;;;;;5089435;28;20097;-73
2021/05/23 10:06:07;;;;;;;1.10;0.60;;;15.30;59.80;;;;;;5089517;28;20133;-73
2021/05/23 10:08:34;;;;;;;2.72;0.80;;;15.60;59.80;;;;;;5089630;28;20535;-70
2021/05/23 10:11:02;;;;;;;2.38;0.82;;;15.60;58.70;;;;;;5089836;28;20052;-72
2021/05/23 10:13:29;;;;;;;1.17;0.50;;;15.60;58.80;;;;;;5089884;28;20143;-73
2021/05/23 10:15:56;;;;;;;1.13;0.70;;;15.40;57.90;;;;;;5089373;28;20612;-72
2021/05/23 10:18:27;;;;;;;1.98;0.60;;;15.60;58.60;;;;;;5089230;28;20128;-73
2021/05/23 10:20:57;;;;;;;3.60;0.85;;;15.50;58.00;;;;;;5086993;28;20060;-73
2021/05/23 10:23:29;;;;;;;2.63;0.90;;;15.60;58.00;;;;;;5089110;28;20440;-72
2021/05/23 10:26:00;;;;;;;4.72;0.90;;;15.20;58.00;;;;;;5087859;28;20087;-73
2021/05/23 10:28:28;;;;;;;1.83;0.75;;;15.20;58.30;;;;;;5087716;28;20044;-73
2021/05/23 10:31:11;;;;;;;0.70;0.45;;;15.20;58.60;;;;;;5085331;28;20148;-73
2021/05/23 10:33:52;;;;;;;2.58;0.70;;;15.00;58.40;;;;;;5088541;28;20105;-73
2021/05/23 10:36:36;;;;;;;2.80;0.93;;;15.20;58.20;;;;;;5089562;28;20080;-73
2021/05/23 10:39:10;;;;;;;2.42;0.75;;;15.60;58.10;;;;;;5086467;28;20162;-72
2021/05/23 10:41:38;;;;;;;2.45;0.85;;;15.90;58.20;;;;;;5088189;28;20048;-74
2021/05/23 10:44:23;;;;;;;4.00;1.10;;;16.10;57.30;;;;;;5088065;28;20490;-77
2021/05/23 10:46:50;;;;;;;2.10;0.60;;;15.80;56.90;;;;;;5084278;28;20137;-76
2021/05/23 10:49:18;;;;;;;3.08;0.75;;;15.70;57.50;;;;;;5088555;28;20582;-76
2021/05/23 10:51:53;;;;;;;3.05;0.82;;;15.50;57.30;;;;;;5086628;28;20056;-76
2021/05/23 10:54:21;;;;;;;1.35;0.68;;;15.50;57.80;;;;;;5086361;28;20474;-77
2021/05/23 10:57:03;;;;;;;5.70;1.88;;;15.30;57.50;;;;;;5087913;28;20052;-75
2021/05/23 10:59:31;;;;;;;18.70;7.97;;;15.40;57.40;;;;;;5086821;28;20052;-74
2021/05/23 11:01:58;;;;;;;25.75;10.05;;;15.20;57.40;;;;;;5086728;28;20059;-77
2021/05/23 11:04:35;;;;;;;5.57;2.78;;;14.90;61.10;;;;;;5088379;28;20477;-76
2021/05/23 11:07:10;;;;;;;4.32;1.60;;;13.20;75.10;;;;;;5086286;28;20063;-74
2021/05/23 11:09:37;;;;;;;7.85;2.03;;;13.60;76.20;;;;;;5087154;28;20084;-76
2021/05/23 11:12:09;;;;;;;4.13;1.20;;;13.80;78.40;;;;;;5103249;27;20058;-76
2021/05/23 11:14:36;;;;;;;1.23;0.73;;;14.00;80.20;;;;;;5084986;28;20056;-76
2021/05/23 11:17:09;;;;;;;2.05;1.00;;;14.70;83.70;;;;;;5088108;28;20071;-75
2021/05/23 11:19:36;;;;;;;4.78;0.90;;;14.90;78.80;;;;;;5084239;28;21251;-76
2021/05/23 11:22:03;;;;;;;2.92;0.77;;;14.90;78.00;;;;;;5088143;28;20052;-78
2021/05/23 11:24:32;;;;;;;2.45;0.90;;;15.00;73.60;;;;;;5087723;28;20137;-79
2021/05/23 11:27:18;;;;;;;3.35;0.88;;;15.00;70.80;;;;;;5087997;28;20105;-76
2021/05/23 11:29:47;;;;;;;2.30;0.95;;;15.10;71.40;;;;;;5088228;28;20051;-76
2021/05/23 11:32:15;;;;;;;1.02;0.63;;;15.30;70.50;;;;;;5082662;28;20779;-76
2021/05/23 11:34:43;;;;;;;2.67;0.82;;;15.60;67.40;;;;;;5083743;28;20538;-76
2021/05/23 11:37:10;;;;;;;3.10;0.95;;;15.80;67.40;;;;;;5086982;28;20048;-77
2021/05/23 11:39:38;;;;;;;4.07;0.80;;;15.80;65.40;;;;;;5085491;28;20063;-77
2021/05/23 11:42:05;;;;;;;1.40;0.70;;;16.40;64.30;;;;;;5086585;28;20052;-77
2021/05/23 11:44:39;;;;;;;2.03;0.93;;;16.00;64.50;;;;;;5083390;28;20052;-75
2021/05/23 11:47:06;;;;;;;5.32;0.93;;;15.80;64.70;;;;;;5085061;28;20052;-75
2021/05/23 11:49:34;;;;;;;1.77;0.80;;;15.10;74.00;;;;;;5082540;28;20083;-77
2021/05/23 11:52:05;;;;;;;5.40;1.20;;;14.40;82.70;;;;;;5082087;28;20415;-77
2021/05/23 11:54:32;;;;;;;3.28;1.20;;;14.30;88.50;;;;;;5085336;28;20197;-77
2021/05/23 11:57:00;;;;;;;4.85;0.90;;;14.40;87.10;;;;;;5082953;28;20059;-75
2021/05/23 11:59:31;;;;;;;3.35;1.00;;;14.30;83.00;;;;;;5086225;28;20144;-78
2021/05/23 12:01:59;;;;;;;4.75;1.05;;;14.50;78.90;;;;;;5086318;28;20044;-78
2021/05/23 12:04:26;;;;;;;3.55;0.98;;;14.80;73.30;;;;;;5085555;28;20055;-76
2021/05/23 12:06:55;;;;;;;2.65;0.90;;;15.30;73.20;;;;;;5088488;28;20071;-74
2021/05/23 12:09:35;;;;;;;3.47;1.35;;;16.10;73.40;;;;;;5083737;28;20048;-78
2021/05/23 12:12:04;;;;;;;3.67;1.33;;;16.30;70.00;;;;;;5078340;28;20058;-76
2021/05/23 12:14:46;;;;;;;2.55;1.13;;;17.80;65.50;;;;;;5080956;28;20585;-75
2021/05/23 12:17:17;;;;;;;2.88;0.90;;;17.30;61.40;;;;;;5082823;28;20101;-76
2021/05/23 12:19:53;;;;;;;4.30;1.00;;;18.00;62.70;;;;;;5083869;28;20119;-77
2021/05/23 12:22:28;;;;;;;3.08;0.90;;;19.70;58.60;;;;;;5077909;28;20488;-76
2021/05/23 12:24:59;;;;;;;2.22;0.90;;;18.60;57.50;;;;;;5083535;28;20044;-77
2021/05/23 12:27:31;;;;;;;1.63;0.80;;;20.80;53.90;;;;;;5085326;28;20104;-76
2021/05/23 12:30:09;;;;;;;1.85;0.70;;;18.10;58.10;;;;;;5080613;28;20087;-77
2021/05/23 12:32:41;;;;;;;1.33;0.65;;;17.60;58.50;;;;;;5081084;28;20135;-76
2021/05/23 12:35:10;;;;;;;2.10;1.08;;;17.20;58.60;;;;;;5082438;28;20104;-76
2021/05/23 12:37:49;;;;;;;4.53;1.90;;;16.60;60.20;;;;;;5090326;28;20675;-75
2021/05/23 12:40:20;;;;;;;6.07;2.58;;;16.30;61.80;;;;;;5081976;28;20052;-77
2021/05/23 12:42:47;;;;;;;3.78;1.10;;;16.80;61.10;;;;;;5078060;28;20040;-75
2021/05/23 12:45:15;;;;;;;2.75;1.20;;;19.40;57.50;;;;;;5086154;28;20048;-77
2021/05/23 12:47:49;;;;;;;2.30;1.02;;;17.90;58.80;;;;;;5081409;28;20368;-76
2021/05/23 12:50:33;;;;;;;2.30;0.82;;;17.70;59.70;;;;;;5087893;28;20140;-77
2021/05/23 12:53:00;;;;;;;2.72;0.50;;;17.40;58.70;;;;;;5086239;28;20105;-77
2021/05/23 12:55:29;;;;;;;0.70;0.60;;;17.10;57.80;;;;;;5083496;28;20054;-76
2021/05/23 12:57:58;;;;;;;3.17;0.80;;;17.50;57.40;;;;;;5080898;28;20539;-76